Time;durP1;ratioP1;P1;durP2;ratioP2;P2;SDS_P1;SDS_P2;PMS_P1;PMS_P2;Temp;Humidity;BMP_temperature;BMP_pressure;BME280_temperature;BME280_humidity;BME280_pressure;Samples;Min_cycle;Max_cycle;Signal;HPM_P1;HPM_P2
2023/07/22 00:01:54;;;;;;;7.97;4.00;;;;;;;18.31;100.00;99847.86;1459879;89;21487;-80
2023/07/22 00:04:21;;;;;;;9.18;4.22;;;;;;;18.30;100.00;99843.55;1461278;89;21481;-80
2023/07/22 00:06:47;;;;;;;6.08;4.15;;;;;;;18.30;100.00;99838.19;1471327;88;21377;-82
2023/07/22 00:09:13;;;;;;;5.58;3.58;;;;;;;18.31;100.00;99838.48;1453454;89;21413;-79
2023/07/22 00:11:40;;;;;;;5.33;3.98;;;;;;;18.32;100.00;99833.41;1468078;88;22397;-80
2023/07/22 00:14:06;;;;;;;7.90;3.87;;;;;;;18.30;100.00;99836.00;1464847;88;21510;-82
2023/07/22 00:16:33;;;;;;;5.72;4.22;;;;;;;18.29;100.00;99835.18;1470785;88;21488;-80
2023/07/22 00:18:59;;;;;;;6.72;3.87;;;;;;;18.29;100.00;99832.50;1460446;89;21367;-81
2023/07/22 00:21:25;;;;;;;7.37;3.83;;;;;;;18.26;100.00;99832.41;1440114;89;21495;-82
2023/07/22 00:23:52;;;;;;;5.60;4.78;;;;;;;18.26;100.00;99825.71;1467742;88;21450;-82
2023/07/22 00:26:18;;;;;;;6.85;3.83;;;;;;;18.27;100.00;99835.94;1469740;89;21370;-83
2023/07/22 00:28:44;;;;;;;6.42;3.90;;;;;;;18.29;100.00;99842.41;1473805;89;21348;-83
2023/07/22 00:31:11;;;;;;;6.37;3.92;;;;;;;18.33;100.00;99836.42;1461672;89;21325;-83
2023/07/22 00:33:38;;;;;;;6.08;3.95;;;;;;;18.36;100.00;99840.02;1470942;89;21398;-84
2023/07/22 00:36:04;;;;;;;9.08;4.58;;;;;;;18.39;100.00;99840.92;1462930;89;22397;-83
2023/07/22 00:38:31;;;;;;;3.92;3.52;;;;;;;18.39;100.00;99838.77;1466832;88;21488;-82
2023/07/22 00:40:57;;;;;;;4.72;3.25;;;;;;;18.38;100.00;99841.94;1471005;88;22299;-83
2023/07/22 00:43:25;;;;;;;6.35;3.75;;;;;;;18.42;100.00;99852.55;1464746;89;21442;-83
2023/07/22 00:47:10;;;;;;;;;;;;;;;;;;;;;
2023/07/22 00:53:48;;;;;;;5.05;3.62;;;;;;;18.32;100.00;99852.17;1431053;91;21553;-84
2023/07/22 00:56:14;;;;;;;8.28;4.30;;;;;;;18.32;100.00;99849.48;1434713;91;21434;-83
2023/07/22 00:58:41;;;;;;;7.33;4.30;;;;;;;18.32;100.00;99852.17;1436011;91;21412;-83
2023/07/22 01:01:07;;;;;;;6.50;4.78;;;;;;;18.35;100.00;99861.12;1436128;91;21545;-82
2023/07/22 01:03:33;;;;;;;6.05;3.62;;;;;;;18.40;100.00;99855.13;1416546;91;22595;-82
2023/07/22 01:06:00;;;;;;;4.35;3.87;;;;;;;18.40;100.00;99855.95;1431207;91;21442;-84
2023/07/22 01:08:27;;;;;;;10.28;4.60;;;;;;;18.37;100.00;99851.02;1434556;91;21589;-83
2023/07/22 01:10:54;;;;;;;8.93;5.35;;;;;;;18.38;100.00;99843.80;1436802;91;21552;-83
2023/07/22 01:13:20;;;;;;;4.33;3.92;;;;;;;18.40;100.00;99844.42;1433468;91;22329;-83
2023/07/22 01:15:48;;;;;;;5.92;3.72;;;;;;;18.40;100.00;99850.59;1413937;91;21486;-83
2023/07/22 01:18:14;;;;;;;6.20;4.10;;;;;;;18.37;100.00;99845.66;1437394;91;22395;-83
2023/07/22 01:20:42;;;;;;;6.70;3.75;;;;;;;18.37;100.00;99839.48;1432039;89;21570;-83
2023/07/22 01:23:09;;;;;;;7.33;3.72;;;;;;;18.37;100.00;99851.55;1433778;89;21546;-83
2023/07/22 01:25:36;;;;;;;6.00;3.95;;;;;;;18.34;100.00;99843.41;1463689;89;21532;-83
2023/07/22 01:28:02;;;;;;;4.37;3.83;;;;;;;18.35;100.00;99839.69;1474511;88;21624;-83
2023/07/22 01:30:28;;;;;;;6.20;4.58;;;;;;;18.39;100.00;99836.91;1471290;89;21406;-82
2023/07/22 01:32:55;;;;;;;5.03;4.08;;;;;;;18.44;100.00;99836.25;1466295;89;21392;-82
2023/07/22 01:35:21;;;;;;;8.58;4.15;;;;;;;18.39;100.00;99832.07;1439475;90;22486;-81
2023/07/22 01:37:47;;;;;;;7.65;4.42;;;;;;;18.34;100.00;99828.68;1414927;93;22972;-82
2023/07/22 01:40:14;;;;;;;5.05;3.95;;;;;;;18.33;100.00;99818.19;1437411;91;21538;-82
2023/07/22 01:42:42;;;;;;;6.17;3.75;;;;;;;18.28;100.00;99806.77;1467623;89;21407;-81
2023/07/22 01:45:10;;;;;;;8.05;4.30;;;;;;;18.28;100.00;99804.09;1466437;89;21383;-82
2023/07/22 01:47:40;;;;;;;5.28;3.80;;;;;;;18.27;100.00;99803.80;1465283;89;21385;-81
2023/07/22 01:50:07;;;;;;;4.80;4.00;;;;;;;18.30;100.00;99807.38;1468382;89;22249;-81
2023/07/22 01:52:33;;;;;;;5.12;3.98;;;;;;;18.33;100.00;99808.81;1472877;89;21506;-80
2023/07/22 01:54:59;;;;;;;6.37;4.53;;;;;;;18.30;100.00;99822.11;1467833;89;21406;-81
2023/07/22 01:57:26;;;;;;;5.30;4.40;;;;;;;18.22;100.00;99836.55;1470356;88;21550;-81
2023/07/22 01:59:52;;;;;;;4.15;3.72;;;;;;;18.23;100.00;99842.73;1482057;88;21465;-81
2023/07/22 02:02:20;;;;;;;7.40;3.95;;;;;;;18.26;100.00;99854.36;1470079;88;21443;-82
2023/07/22 02:04:46;;;;;;;7.75;4.80;;;;;;;18.31;100.00;99862.59;1466015;89;21436;-81
2023/07/22 02:07:12;;;;;;;11.28;4.12;;;;;;;18.35;100.00;99867.81;1473123;88;22434;-81
2023/07/22 02:09:38;;;;;;;5.50;4.20;;;;;;;18.40;100.00;99861.83;1459374;88;21384;-81
2023/07/22 02:12:07;;;;;;;8.20;4.33;;;;;;;18.42;100.00;99864.61;1476175;89;21377;-81
2023/07/22 02:14:33;;;;;;;6.08;3.62;;;;;;;18.45;100.00;99858.82;1467540;88;21414;-80
2023/07/22 02:16:59;;;;;;;12.00;3.80;;;;;;;18.44;100.00;99867.06;1471023;89;22220;-81
2023/07/22 02:19:26;;;;;;;6.33;3.65;;;;;;;18.39;100.00;99862.88;1463584;89;21384;-80
2023/07/22 02:21:53;;;;;;;5.83;3.72;;;;;;;18.35;100.00;99854.95;1475867;88;21583;-82
2023/07/22 02:24:19;;;;;;;9.70;4.40;;;;;;;18.33;100.00;99857.03;1444044;90;21612;-81
2023/07/22 02:26:46;;;;;;;14.78;4.97;;;;;;;18.33;100.00;99855.17;1415506;91;21399;-81
2023/07/22 02:29:12;;;;;;;8.70;3.37;;;;;;;18.31;100.00;99863.92;1469551;88;22256;-81
2023/07/22 02:31:39;;;;;;;7.67;3.90;;;;;;;18.24;100.00;99865.30;1464921;89;22301;-81
2023/07/22 02:34:06;;;;;;;6.60;4.22;;;;;;;18.18;100.00;99869.31;1468138;89;21421;-80
2023/07/22 02:36:32;;;;;;;7.00;3.83;;;;;;;18.16;100.00;99880.78;1462471;89;21377;-83
2023/07/22 02:38:58;;;;;;;10.55;3.77;;;;;;;18.19;100.00;99885.71;1430871;89;22344;-82
2023/07/22 02:41:24;;;;;;;5.78;3.80;;;;;;;18.21;100.00;99893.00;1474721;88;21362;-82
2023/07/22 02:43:50;;;;;;;5.05;4.30;;;;;;;18.24;100.00;99892.58;1446960;89;21524;-82
2023/07/22 02:46:17;;;;;;;5.90;3.75;;;;;;;18.27;100.00;99893.52;1436594;89;21520;-82
2023/07/22 02:48:44;;;;;;;10.00;4.90;;;;;;;18.31;100.00;99893.39;1472185;89;21325;-81
2023/07/22 02:51:10;;;;;;;13.20;4.47;;;;;;;18.35;100.00;99889.77;1464424;89;21487;-82
2023/07/22 02:53:37;;;;;;;9.65;4.45;;;;;;;18.36;100.00;99881.53;1468047;88;21443;-81
2023/07/22 02:56:08;;;;;;;5.83;4.28;;;;;;;18.40;100.00;99881.41;1474084;89;22290;-82
2023/07/22 02:58:36;;;;;;;5.25;3.42;;;;;;;18.42;100.00;99886.04;1468411;89;22336;-81
2023/07/22 03:01:05;;;;;;;7.20;4.87;;;;;;;18.44;100.00;99892.02;1462511;88;21370;-82
2023/07/22 03:03:34;;;;;;;10.23;4.28;;;;;;;18.47;100.00;99895.61;1465170;88;21392;-82
2023/07/22 03:06:02;;;;;;;5.25;4.40;;;;;;;18.47;100.00;99903.65;1461721;89;21594;-82
2023/07/22 03:08:29;;;;;;;4.60;4.15;;;;;;;18.46;100.00;99911.36;1465485;88;21355;-83
2023/07/22 03:10:55;;;;;;;11.33;4.72;;;;;;;18.44;100.00;99917.47;1463195;89;21584;-84
2023/07/22 03:13:21;;;;;;;6.00;4.60;;;;;;;18.40;100.00;99916.23;1468574;89;21377;-82
2023/07/22 03:15:48;;;;;;;5.92;4.17;;;;;;;18.37;100.00;99928.71;1466092;89;21532;-82
2023/07/22 03:18:14;;;;;;;7.10;3.58;;;;;;;18.36;100.00;99936.45;1463633;89;21406;-84
2023/07/22 03:20:41;;;;;;;7.03;3.87;;;;;;;18.32;100.00;99933.88;1467456;88;21465;-82
2023/07/22 03:23:08;;;;;;;6.12;4.50;;;;;;;18.30;100.00;99935.11;1449891;88;21606;-83
2023/07/22 03:25:35;;;;;;;8.80;4.67;;;;;;;18.28;100.00;99942.55;1448107;89;21407;-85
2023/07/22 03:28:06;;;;;;;6.33;4.35;;;;;;;18.25;100.00;99943.27;1443612;90;21642;-84
2023/07/22 03:30:33;;;;;;;11.70;5.33;;;;;;;18.23;100.00;99948.52;1435199;91;21377;-84
2023/07/22 03:33:00;;;;;;;8.88;4.53;;;;;;;18.23;100.00;99951.20;1427095;91;22418;-85
2023/07/22 03:35:27;;;;;;;5.10;3.90;;;;;;;18.21;100.00;99953.26;1434645;91;21362;-84
2023/07/22 03:37:54;;;;;;;5.33;3.92;;;;;;;18.21;100.00;99955.45;1442737;90;21613;-83
2023/07/22 03:40:21;;;;;;;5.92;5.00;;;;;;;18.23;100.00;99972.63;1429787;90;22249;-82
2023/07/22 03:42:50;;;;;;;5.58;3.90;;;;;;;18.23;100.00;99972.63;1436591;90;21652;-82
2023/07/22 03:45:18;;;;;;;4.92;4.22;;;;;;;18.23;100.00;99986.02;1433166;90;21434;-82
2023/07/22 03:47:55;;;;;;;4.47;3.40;;;;;;;18.22;100.00;99979.84;1438893;90;22887;-82
2023/07/22 03:50:22;;;;;;;5.62;4.40;;;;;;;18.21;100.00;99982.72;1428749;90;21449;-82
2023/07/22 03:52:48;;;;;;;8.28;5.15;;;;;;;18.21;100.00;99976.02;1439896;91;21400;-81
2023/07/22 03:55:14;;;;;;;12.55;4.80;;;;;;;18.22;100.00;99973.67;1445049;90;22301;-80
2023/07/22 03:57:41;;;;;;;8.15;5.25;;;;;;;18.25;100.00;99965.22;1435244;91;21325;-80
2023/07/22 04:00:11;;;;;;;11.05;4.47;;;;;;;18.26;100.00;99962.31;1429077;91;21477;-82
2023/07/22 04:02:38;;;;;;;6.42;3.90;;;;;;;18.27;100.00;99952.45;1445240;89;21444;-81
2023/07/22 04:05:04;;;;;;;7.42;4.37;;;;;;;18.30;100.00;99954.70;1435556;90;21481;-81
2023/07/22 04:07:31;;;;;;;6.08;4.17;;;;;;;18.33;100.00;99949.45;1434866;90;21503;-81
2023/07/22 04:09:57;;;;;;;9.18;5.00;;;;;;;18.38;100.00;99955.80;1431905;91;21444;-84
2023/07/22 04:12:24;;;;;;;7.70;4.30;;;;;;;18.42;100.00;99953.02;1443135;90;21399;-85
2023/07/22 04:14:50;;;;;;;6.22;5.08;;;;;;;18.45;100.00;99959.30;1419006;91;21445;-86
2023/07/22 04:17:16;;;;;;;9.83;5.12;;;;;;;18.49;100.00;99969.07;1423027;91;21421;-85
2023/07/22 04:19:43;;;;;;;5.65;4.00;;;;;;;18.57;100.00;99970.70;1439752;90;21570;-84
2023/07/22 04:22:09;;;;;;;7.25;4.40;;;;;;;18.63;100.00;99961.81;1427914;90;21421;-85
2023/07/22 04:24:36;;;;;;;6.37;4.70;;;;;;;18.68;100.00;99952.63;1431662;89;21668;-85
2023/07/22 04:27:03;;;;;;;8.28;4.12;;;;;;;18.76;100.00;99956.94;1439816;91;21503;-85
2023/07/22 04:29:29;;;;;;;10.35;5.25;;;;;;;18.83;100.00;99957.23;1429965;90;21397;-84
2023/07/22 04:32:00;;;;;;;6.65;5.67;;;;;;;18.87;100.00;99953.11;1440238;90;21499;-86
2023/07/22 04:34:31;;;;;;;8.10;4.72;;;;;;;18.90;100.00;99956.70;1435057;91;21429;-85
2023/07/22 04:36:58;;;;;;;5.33;4.60;;;;;;;18.93;100.00;99949.56;1439663;90;21341;-85
2023/07/22 04:39:24;;;;;;;10.03;4.95;;;;;;;18.93;100.00;99950.06;1433681;90;21518;-85
2023/07/22 04:41:51;;;;;;;7.60;4.65;;;;;;;18.94;100.00;99952.54;1425916;91;21533;-84
2023/07/22 04:44:19;;;;;;;11.97;5.10;;;;;;;18.93;100.00;99957.61;1434467;90;21444;-84
2023/07/22 04:46:45;;;;;;;8.20;5.35;;;;;;;18.93;100.00;99954.93;1436785;90;22396;-85
2023/07/22 04:49:12;;;;;;;10.63;5.05;;;;;;;18.92;100.00;99956.47;1437791;90;21332;-83
2023/07/22 04:51:39;;;;;;;7.58;4.78;;;;;;;18.92;100.00;99958.62;1434672;90;21604;-83
2023/07/22 04:54:06;;;;;;;7.47;4.60;;;;;;;18.94;100.00;99966.47;1435340;91;21377;-82
2023/07/22 04:56:32;;;;;;;7.00;4.42;;;;;;;18.93;100.00;99967.00;1443614;90;22546;-84
2023/07/22 04:58:58;;;;;;;7.72;5.20;;;;;;;18.96;100.00;99975.63;1421563;91;22293;-82
2023/07/22 05:01:25;;;;;;;8.33;5.10;;;;;;;19.00;100.00;99972.84;1434466;90;21489;-81
2023/07/22 05:03:51;;;;;;;4.90;4.37;;;;;;;19.07;100.00;99980.32;1439860;91;21428;-82
2023/07/22 05:06:17;;;;;;;9.90;5.40;;;;;;;19.11;100.00;99990.95;1438265;90;22316;-81
2023/07/22 05:08:43;;;;;;;11.33;5.40;;;;;;;19.17;100.00;99996.79;1438858;90;21399;-80
2023/07/22 05:11:09;;;;;;;7.10;3.52;;;;;;;19.26;100.00;99999.52;1444840;90;21934;-82
2023/07/22 05:13:35;;;;;;;8.50;5.00;;;;;;;19.36;100.00;100001.72;1434462;90;21407;-81
2023/07/22 05:16:02;;;;;;;6.30;5.15;;;;;;;19.42;100.00;100005.41;1436576;91;21608;-81
2023/07/22 05:18:28;;;;;;;6.42;5.53;;;;;;;19.38;100.00;100008.53;1440197;90;21429;-80
2023/07/22 05:20:54;;;;;;;6.67;4.95;;;;;;;19.42;100.00;100004.06;1434514;90;21376;-82
2023/07/22 05:23:20;;;;;;;8.70;4.55;;;;;;;19.46;100.00;99995.91;1444245;89;21532;-83
2023/07/22 05:25:53;;;;;;;7.30;5.12;;;;;;;19.51;100.00;99995.56;1468113;89;21555;-83
2023/07/22 05:28:20;;;;;;;6.78;5.05;;;;;;;19.54;100.00;99991.10;1465607;88;21540;-80
2023/07/22 05:30:46;;;;;;;7.85;6.10;;;;;;;19.60;100.00;99989.41;1461421;88;22147;-82
2023/07/22 05:33:12;;;;;;;7.50;4.80;;;;;;;19.68;100.00;99986.50;1462301;88;21444;-80
2023/07/22 05:35:38;;;;;;;6.80;4.33;;;;;;;19.79;100.00;99993.85;1447983;89;21507;-80
2023/07/22 05:38:05;;;;;;;6.62;4.42;;;;;;;19.86;100.00;99997.81;1459674;88;21406;-83
2023/07/22 05:40:32;;;;;;;5.72;4.45;;;;;;;19.96;100.00;99992.76;1448936;88;21518;-84
2023/07/22 05:42:58;;;;;;;4.50;3.75;;;;;;;20.03;100.00;100000.78;1441141;88;21442;-82
2023/07/22 05:45:25;;;;;;;6.22;4.37;;;;;;;20.09;100.00;99995.87;1470296;88;22300;-84
2023/07/22 05:47:51;;;;;;;5.12;4.25;;;;;;;20.15;100.00;99990.13;1469423;88;21332;-83
2023/07/22 05:50:17;;;;;;;6.65;4.78;;;;;;;20.22;100.00;99988.19;1449154;88;21383;-82
2023/07/22 05:52:43;;;;;;;6.67;4.33;;;;;;;20.36;100.00;99991.58;1555462;88;21355;-82
2023/07/22 05:55:10;;;;;;;7.08;4.20;;;;;;;20.36;100.00;99991.58;1394802;88;21259;-82
2023/07/22 05:57:36;;;;;;;4.72;4.10;;;;;;;20.39;100.00;99985.75;1393746;88;21458;-79
2023/07/22 06:00:03;;;;;;;9.03;4.78;;;;;;;20.39;100.00;99981.72;1399640;88;21296;-83
2023/07/22 06:02:29;;;;;;;6.78;4.15;;;;;;;20.53;100.00;99991.33;1393552;88;21408;-83
2023/07/22 06:04:55;;;;;;;9.23;4.33;;;;;;;20.59;100.00;99997.14;1398324;88;21333;-82
2023/07/22 06:07:21;;;;;;;6.80;4.53;;;;;;;20.63;100.00;99997.02;1404255;88;21410;-82
2023/07/22 06:09:47;;;;;;;5.22;3.92;;;;;;;20.66;100.00;99997.91;1394221;88;21474;-81
2023/07/22 06:12:14;;;;;;;5.92;3.55;;;;;;;20.68;100.00;99994.98;1394041;88;21282;-81
2023/07/22 06:14:40;;;;;;;5.17;3.80;;;;;;;20.77;100.00;99994.16;1403271;88;22257;-81
2023/07/22 06:17:06;;;;;;;7.60;3.50;;;;;;;20.85;100.00;99997.89;1553397;88;21245;-80
2023/07/22 06:19:33;;;;;;;4.87;3.95;;;;;;;20.94;100.00;100000.56;1393903;88;21297;-81
2023/07/22 06:21:59;;;;;;;6.70;3.98;;;;;;;20.92;100.00;99999.46;1394217;88;21266;-80
2023/07/22 06:24:26;;;;;;;5.15;4.05;;;;;;;20.97;100.00;100005.48;1399730;88;22278;-80
2023/07/22 06:26:52;;;;;;;5.37;4.00;;;;;;;21.04;100.00;100008.94;1394190;88;22190;-82
2023/07/22 06:29:19;;;;;;;14.85;5.42;;;;;;;21.15;100.00;100010.86;1394384;88;21200;-82
2023/07/22 06:31:45;;;;;;;5.20;4.25;;;;;;;21.26;100.00;100011.97;1402792;88;21592;-78
2023/07/22 06:34:11;;;;;;;8.10;4.55;;;;;;;21.33;100.00;100011.88;1404528;88;21305;-77
2023/07/22 06:36:37;;;;;;;6.42;4.15;;;;;;;21.37;100.00;100010.38;1468593;88;21524;-76
2023/07/22 06:39:03;;;;;;;7.17;5.05;;;;;;;21.37;100.00;100014.42;1465253;88;21436;-81
2023/07/22 06:41:30;;;;;;;10.53;4.45;;;;;;;21.43;100.00;100020.23;1470632;88;22382;-80
2023/07/22 06:43:56;;;;;;;5.10;3.87;;;;;;;21.50;100.00;100027.70;1448296;88;21429;-81
2023/07/22 06:46:22;;;;;;;9.23;4.05;;;;;;;21.57;100.00;100028.41;1431711;88;21531;-82
2023/07/22 06:48:48;;;;;;;5.65;3.85;;;;;;;21.71;100.00;100026.88;1470297;88;21407;-83
2023/07/22 06:51:14;;;;;;;7.97;3.83;;;;;;;21.84;100.00;100028.04;1469618;88;21628;-81
2023/07/22 06:53:40;;;;;;;6.42;4.62;;;;;;;21.94;100.00;100033.66;1463806;88;21351;-82
2023/07/22 06:56:17;;;;;;;4.95;3.87;;;;;;;22.03;100.00;100037.66;1472000;88;22352;-81
2023/07/22 06:58:43;;;;;;;14.83;5.40;;;;;;;22.14;100.00;100036.56;1471448;88;21516;-81
2023/07/22 07:01:10;;;;;;;5.20;4.15;;;;;;;22.21;100.00;100039.98;1465959;88;21311;-83
2023/07/22 07:03:36;;;;;;;8.65;4.22;;;;;;;22.28;100.00;100047.45;1465457;88;21730;-82
2023/07/22 07:06:02;;;;;;;7.60;4.03;;;;;;;22.31;100.00;100044.28;1448503;88;21354;-82
2023/07/22 07:08:28;;;;;;;8.33;5.37;;;;;;;22.32;100.00;100051.30;1450143;88;21426;-83
2023/07/22 07:10:54;;;;;;;6.62;3.92;;;;;;;22.40;100.00;100049.61;1452174;88;22088;-81
2023/07/22 07:13:20;;;;;;;7.40;4.90;;;;;;;22.49;100.00;100056.28;1469903;88;21586;-81
2023/07/22 07:15:51;;;;;;;8.33;4.28;;;;;;;22.63;100.00;100061.45;1465269;88;21392;-81
2023/07/22 07:18:17;;;;;;;5.40;4.35;;;;;;;22.69;100.00;100061.85;1501288;88;21340;-80
2023/07/22 07:20:44;;;;;;;7.58;3.87;;;;;;;22.75;100.00;100064.95;1467528;88;21428;-80
2023/07/22 07:23:11;;;;;;;6.67;4.15;;;;;;;22.81;100.00;100062.64;1467223;88;22515;-81
2023/07/22 07:25:37;;;;;;;7.90;4.78;;;;;;;22.94;100.00;100066.98;1465826;88;21429;-80
2023/07/22 07:28:04;;;;;;;4.50;3.83;;;;;;;23.04;100.00;100067.75;1456018;89;21893;-80
2023/07/22 07:30:32;;;;;;;9.03;4.30;;;;;;;23.18;100.00;100065.06;1462950;89;21385;-80
2023/07/22 07:32:58;;;;;;;7.62;4.90;;;;;;;23.31;100.00;100066.16;1458204;89;21480;-82
2023/07/22 07:35:24;;;;;;;9.25;4.28;;;;;;;23.40;100.00;100070.11;1468636;89;21399;-79
2023/07/22 07:37:51;;;;;;;8.68;4.60;;;;;;;23.45;100.00;100068.55;1464045;89;21452;-81
2023/07/22 07:40:17;;;;;;;7.20;4.25;;;;;;;23.54;99.92;100071.99;1466427;89;21384;-82
2023/07/22 07:42:43;;;;;;;5.83;4.20;;;;;;;23.64;100.00;100063.24;1474897;89;21548;-81
2023/07/22 07:45:10;;;;;;;5.72;4.03;;;;;;;23.72;99.31;100068.83;1462213;88;21406;-81
2023/07/22 07:47:36;;;;;;;8.83;3.95;;;;;;;23.73;97.93;100067.22;1459920;88;21592;-81
2023/07/22 07:50:03;;;;;;;6.90;4.45;;;;;;;23.72;97.65;100069.64;1461548;89;21347;-81
2023/07/22 07:52:29;;;;;;;4.42;3.72;;;;;;;23.75;97.65;100070.50;1459470;89;21384;-82
2023/07/22 07:54:55;;;;;;;11.97;4.28;;;;;;;23.80;96.77;100067.90;1443354;90;21406;-82
2023/07/22 07:57:21;;;;;;;9.15;4.90;;;;;;;23.89;95.47;100071.56;1424199;91;21430;-80
2023/07/22 07:59:48;;;;;;;5.10;3.62;;;;;;;24.00;95.84;100077.43;1423552;91;22390;-82
2023/07/22 08:02:14;;;;;;;5.40;3.95;;;;;;;24.10;94.51;100082.98;1429806;91;21408;-80
2023/07/22 08:04:40;;;;;;;7.35;3.85;;;;;;;24.15;94.06;100081.73;1425802;91;21602;-80
2023/07/22 08:07:07;;;;;;;6.15;4.25;;;;;;;24.20;94.07;100081.00;1432048;91;22294;-82
2023/07/22 08:09:33;;;;;;;4.85;3.47;;;;;;;24.32;94.00;100086.59;1434575;91;21585;-81
2023/07/22 08:12:02;;;;;;;6.45;3.87;;;;;;;24.46;94.25;100087.66;1432283;91;21466;-80
2023/07/22 08:14:28;;;;;;;5.83;3.98;;;;;;;24.57;93.89;100088.09;1430919;91;21455;-81
2023/07/22 08:16:54;;;;;;;4.22;3.42;;;;;;;24.71;93.19;100088.00;1415242;91;21489;-81
2023/07/22 08:19:20;;;;;;;6.00;3.47;;;;;;;24.63;91.51;100083.05;1432312;91;21400;-79
2023/07/22 08:21:47;;;;;;;5.50;4.25;;;;;;;24.63;90.92;100096.57;1433605;91;22614;-82
2023/07/22 08:24:14;;;;;;;5.97;3.52;;;;;;;24.65;91.23;100093.60;1467279;88;21458;-80
2023/07/22 08:26:40;;;;;;;6.05;3.80;;;;;;;24.74;91.68;100095.66;1466640;88;21575;-82
2023/07/22 08:29:06;;;;;;;6.80;3.87;;;;;;;24.91;91.93;100100.19;1472698;88;21578;-84
2023/07/22 08:31:33;;;;;;;9.18;4.05;;;;;;;25.06;91.56;100096.86;1469379;88;21437;-81
2023/07/22 08:33:59;;;;;;;4.85;3.95;;;;;;;25.21;91.04;100106.03;1468402;88;21384;-80
2023/07/22 08:36:25;;;;;;;6.00;3.40;;;;;;;25.18;90.05;100106.54;1472007;88;21524;-82
2023/07/22 08:38:51;;;;;;;7.25;3.67;;;;;;;25.30;90.45;100101.53;1461936;88;21369;-81
2023/07/22 08:41:18;;;;;;;6.83;3.50;;;;;;;25.48;89.40;100110.67;1468816;88;21542;-81
2023/07/22 08:43:47;;;;;;;4.67;3.02;;;;;;;25.60;88.29;100101.86;1462334;88;21473;-81
2023/07/22 08:46:15;;;;;;;8.35;3.00;;;;;;;25.69;87.99;100109.00;1390313;88;21414;-81
2023/07/22 08:48:44;;;;;;;5.65;3.75;;;;;;;25.75;88.29;100112.58;1474620;88;22331;-81
2023/07/22 08:51:19;;;;;;;5.72;3.33;;;;;;;25.80;85.81;100107.22;1458264;88;21443;-82
2023/07/22 08:53:47;;;;;;;5.37;2.90;;;;;;;25.78;85.66;100109.36;1470845;88;21421;-80
2023/07/22 08:56:14;;;;;;;7.20;3.60;;;;;;;25.88;86.70;100113.56;1475397;88;21397;-81
2023/07/22 08:58:42;;;;;;;7.58;3.35;;;;;;;25.87;86.10;100110.59;1467227;88;22330;-81
2023/07/22 09:01:09;;;;;;;8.70;4.10;;;;;;;25.68;86.53;100111.98;1468237;88;22365;-81
2023/07/22 09:03:36;;;;;;;4.25;2.67;;;;;;;25.61;86.47;100110.29;1468654;88;21361;-80
2023/07/22 09:06:05;;;;;;;6.10;2.75;;;;;;;25.68;85.78;100120.11;1466118;88;22324;-81
2023/07/22 09:08:31;;;;;;;4.00;2.85;;;;;;;25.79;85.08;100125.37;1474913;88;22235;-81
2023/07/22 09:10:58;;;;;;;2.90;2.30;;;;;;;25.91;84.09;100122.54;1464551;88;21470;-80
2023/07/22 09:13:26;;;;;;;6.80;2.40;;;;;;;26.04;84.38;100123.48;1469268;88;21296;-82
2023/07/22 09:15:53;;;;;;;4.30;2.95;;;;;;;26.24;84.57;100119.30;1468541;88;21514;-83
2023/07/22 09:18:19;;;;;;;6.47;3.12;;;;;;;26.28;83.64;100123.95;1470126;88;21362;-81
2023/07/22 09:20:46;;;;;;;5.80;2.90;;;;;;;26.10;82.39;100124.36;1465962;88;21428;-82
2023/07/22 09:23:13;;;;;;;4.08;3.02;;;;;;;26.12;82.12;100130.31;1466806;88;21546;-82
2023/07/22 09:25:40;;;;;;;3.80;3.10;;;;;;;26.29;82.12;100127.48;1470828;88;21480;-82
2023/07/22 09:28:07;;;;;;;7.78;3.37;;;;;;;26.52;81.30;100131.76;1457373;89;22242;-81
2023/07/22 09:30:39;;;;;;;7.22;3.00;;;;;;;26.60;81.35;100127.75;1469799;89;21741;-81
2023/07/22 09:33:10;;;;;;;6.75;3.27;;;;;;;26.47;81.64;100133.88;1469120;89;21422;-81
2023/07/22 09:35:48;;;;;;;7.35;3.50;;;;;;;26.29;81.88;100138.33;1452356;89;21543;-81
2023/07/22 09:38:17;;;;;;;4.87;3.25;;;;;;;26.40;82.80;100140.59;1468544;89;21347;-81
2023/07/22 09:40:43;;;;;;;6.15;2.92;;;;;;;26.62;81.15;100135.11;1449815;89;21450;-81
2023/07/22 09:43:14;;;;;;;7.25;3.00;;;;;;;26.77;80.36;100135.20;1469593;88;22286;-81
2023/07/22 09:45:40;;;;;;;6.28;2.98;;;;;;;26.91;80.68;100133.66;1457689;89;22166;-81
2023/07/22 09:48:10;;;;;;;5.08;2.70;;;;;;;26.96;80.32;100133.69;1468028;89;21458;-81
2023/07/22 09:50:37;;;;;;;3.90;2.72;;;;;;;26.92;79.50;100129.03;1456648;89;21642;-81
2023/07/22 09:53:03;;;;;;;6.33;3.12;;;;;;;27.06;79.86;100137.53;1457274;89;21369;-82
2023/07/22 09:55:32;;;;;;;6.42;3.40;;;;;;;27.29;79.81;100141.75;1468445;89;21363;-81
2023/07/22 09:58:03;;;;;;;4.35;2.67;;;;;;;27.40;77.93;100149.67;1468524;89;21317;-82
2023/07/22 10:00:32;;;;;;;5.95;2.92;;;;;;;27.39;77.87;100139.90;1475885;88;21436;-81
2023/07/22 10:03:01;;;;;;;5.22;3.17;;;;;;;27.43;76.84;100145.61;1464699;89;21348;-81
2023/07/22 10:05:31;;;;;;;6.03;2.98;;;;;;;27.53;77.49;100142.91;1469169;89;21406;-81
2023/07/22 10:07:59;;;;;;;4.22;3.05;;;;;;;27.60;75.69;100146.76;1461571;89;21413;-80
2023/07/22 10:10:37;;;;;;;10.78;2.90;;;;;;;27.77;76.41;100147.34;1467901;89;22248;-81
2023/07/22 10:13:04;;;;;;;3.33;3.00;;;;;;;27.84;74.28;100137.05;1468717;88;21376;-81
2023/07/22 10:15:35;;;;;;;7.35;3.17;;;;;;;27.88;74.12;100136.80;1461680;89;22406;-81
2023/07/22 10:18:04;;;;;;;4.22;2.87;;;;;;;27.98;74.71;100146.05;1471435;88;21444;-81
2023/07/22 10:20:34;;;;;;;3.98;2.85;;;;;;;28.07;74.12;100147.15;1470294;88;21562;-81
2023/07/22 10:23:00;;;;;;;5.10;3.40;;;;;;;28.12;73.81;100147.97;1440840;90;21466;-82
2023/07/22 10:25:30;;;;;;;4.72;3.22;;;;;;;28.22;73.83;100140.34;1428501;91;22448;-83
2023/07/22 10:27:56;;;;;;;5.87;3.00;;;;;;;28.29;73.92;100144.98;1423238;91;21334;-81
2023/07/22 10:30:22;;;;;;;4.67;2.70;;;;;;;28.23;74.50;100140.64;1427572;90;21519;-82
2023/07/22 10:32:54;;;;;;;3.72;2.67;;;;;;;28.28;73.52;100147.97;1464675;88;21369;-81
2023/07/22 10:35:35;;;;;;;5.20;3.17;;;;;;;28.27;73.58;100143.62;1469449;89;22353;-82
2023/07/22 10:38:14;;;;;;;5.12;2.85;;;;;;;28.26;73.67;100148.25;1457265;89;22759;-81
2023/07/22 10:40:56;;;;;;;4.80;2.90;;;;;;;28.16;73.94;100148.78;1463307;89;21555;-82
2023/07/22 10:43:31;;;;;;;5.58;3.67;;;;;;;28.09;73.85;100149.06;1464370;89;21266;-82
2023/07/22 10:46:01;;;;;;;8.53;3.70;;;;;;;27.89;74.22;100145.22;1455419;89;21497;-82
2023/07/22 10:48:29;;;;;;;;;;;;;;;27.99;74.13;100149.03;1468042;88;21457;-84
2023/07/22 10:51:09;;;;;;;4.65;2.90;;;;;;;28.07;73.85;100147.15;1467143;89;20313;-82
2023/07/22 10:53:45;;;;;;;4.75;2.98;;;;;;;28.18;75.04;100154.23;1467444;89;22316;-82
2023/07/22 10:56:20;;;;;;;8.95;2.90;;;;;;;28.37;73.26;100153.69;1472780;88;21834;-82
2023/07/22 10:58:52;;;;;;;8.48;3.10;;;;;;;28.30;72.97;100145.25;1471725;89;21510;-79
2023/07/22 11:01:30;;;;;;;8.60;3.15;;;;;;;28.45;73.12;100143.09;1473258;88;22420;-80
2023/07/22 11:04:30;;;;;;;7.08;3.67;;;;;;;28.45;73.51;100139.56;1466296;89;21332;-79
2023/07/22 11:06:54;;;;;;;6.78;3.25;;;;;;;28.38;73.30;100153.97;1443333;90;21579;-80
2023/07/22 11:09:33;;;;;;;7.95;3.20;;;;;;;28.10;73.41;100150.69;1431221;91;21431;-79
2023/07/22 11:12:10;;;;;;;7.60;3.10;;;;;;;27.97;73.50;100147.16;1419252;91;21319;-79
2023/07/22 11:14:47;;;;;;;5.35;3.33;;;;;;;27.76;74.60;100152.48;1415912;91;22449;-79
2023/07/22 11:17:13;;;;;;;7.70;3.08;;;;;;;27.56;74.92;100150.53;1421226;92;21378;-80
2023/07/22 11:19:41;;;;;;;4.58;3.33;;;;;;;27.46;75.41;100146.44;1414456;91;21408;-79
2023/07/22 11:22:07;;;;;;;9.55;3.30;;;;;;;27.43;75.88;100153.22;1419751;91;21437;-79
2023/07/22 11:24:38;;;;;;;7.97;3.87;;;;;;;27.61;74.99;100149.19;1418467;92;21650;-79
2023/07/22 11:27:08;;;;;;;5.80;3.47;;;;;;;27.82;75.93;100148.75;1471707;88;22930;-79
2023/07/22 11:29:35;;;;;;;7.37;3.65;;;;;;;27.91;74.29;100144.97;1464345;89;21259;-79
2023/07/22 11:32:03;;;;;;;3.92;3.50;;;;;;;28.02;74.99;100134.89;1470743;88;21535;-79